Time;durP1;ratioP1;P1;durP2;ratioP2;P2;SDS_P1;SDS_P2;PMS_P1;PMS_P2;Temp;Humidity;BMP_temperature;BMP_pressure;BME280_temperature;BME280_humidity;BME280_pressure;Samples;Min_cycle;Max_cycle;Signal;HPM_P1;HPM_P2
2022/07/21 00:00:54;;;;;;;1.65;1.05;;;;;;;24.36;52.55;101220.38;5222117;28;20037;-81
2022/07/21 00:03:25;;;;;;;0.75;0.70;;;;;;;24.34;49.32;101216.94;5181081;28;20047;-81
2022/07/21 00:05:55;;;;;;;3.78;0.93;;;;;;;24.32;49.27;101225.13;5209013;28;20569;-80
2022/07/21 00:08:26;;;;;;;0.90;0.65;;;;;;;24.29;49.28;101235.22;5196566;28;20113;-82
2022/07/21 00:10:56;;;;;;;0.75;0.75;;;;;;;24.27;49.50;101227.31;5233499;28;20045;-81
2022/07/21 00:13:27;;;;;;;0.77;0.77;;;;;;;24.29;51.21;101221.81;5189386;28;20483;-81
2022/07/21 00:16:00;;;;;;;1.40;1.17;;;;;;;24.24;53.03;101226.69;5187416;28;20029;-82
2022/07/21 00:18:31;;;;;;;1.00;0.90;;;;;;;24.25;49.76;101213.16;5214704;28;20629;-80
2022/07/21 00:21:02;;;;;;;0.50;0.50;;;;;;;24.19;49.57;101216.31;5208414;28;20097;-83
2022/07/21 00:23:33;;;;;;;0.55;0.55;;;;;;;24.13;49.35;101206.91;5189584;28;20036;-82
2022/07/21 00:26:04;;;;;;;0.75;0.75;;;;;;;24.12;49.63;101212.41;5210401;28;20037;-82
2022/07/21 00:28:34;;;;;;;0.43;0.43;;;;;;;24.10;49.80;101215.19;5219243;28;20124;-82
2022/07/21 00:31:05;;;;;;;0.95;0.90;;;;;;;24.05;49.66;101212.03;5194768;28;20124;-82
2022/07/21 00:33:38;;;;;;;0.38;0.38;;;;;;;24.03;49.39;101214.81;5186767;28;20030;-82
2022/07/21 00:36:09;;;;;;;0.52;0.50;;;;;;;24.01;49.25;101213.22;5207379;28;20038;-82
2022/07/21 00:38:40;;;;;;;0.30;0.30;;;;;;;23.99;49.22;101207.13;5210394;28;20511;-82
2022/07/21 00:41:11;;;;;;;0.65;0.60;;;;;;;23.97;49.41;101203.72;5210590;28;20086;-83
2022/07/21 00:43:51;;;;;;;3.25;0.75;;;;;;;23.95;49.41;101211.00;5213728;28;20052;-82
2022/07/21 00:46:22;;;;;;;0.35;0.35;;;;;;;23.97;49.63;101214.44;5190437;28;20127;-82
2022/07/21 00:48:52;;;;;;;0.73;0.73;;;;;;;23.93;49.87;101221.81;5206770;28;20117;-81
2022/07/21 00:51:26;;;;;;;0.50;0.47;;;;;;;23.94;50.72;101220.00;5212109;28;20133;-81
2022/07/21 00:53:57;;;;;;;0.55;0.55;;;;;;;23.94;50.25;101228.06;5196353;28;20104;-81
2022/07/21 00:56:27;;;;;;;0.82;0.82;;;;;;;23.91;50.94;101231.78;5170738;28;20127;-81
2022/07/21 00:58:58;;;;;;;0.98;0.93;;;;;;;23.87;50.47;101225.81;5202620;28;20666;-82
2022/07/21 01:01:29;;;;;;;0.60;0.60;;;;;;;23.87;50.28;101219.63;5231671;28;20086;-81
2022/07/21 01:03:59;;;;;;;0.30;0.30;;;;;;;23.84;51.09;101225.19;5209154;28;20029;-82
2022/07/21 01:06:29;;;;;;;0.40;0.40;;;;;;;23.81;51.93;101214.69;5208891;28;20034;-81
2022/07/21 01:09:01;;;;;;;0.30;0.30;;;;;;;23.79;50.91;101220.19;5214459;28;20100;-81
2022/07/21 01:11:32;;;;;;;0.50;0.50;;;;;;;23.81;50.96;101222.72;5215239;28;20037;-81
2022/07/21 01:14:02;;;;;;;0.30;0.30;;;;;;;23.75;51.56;101232.13;5216403;28;20022;-81
2022/07/21 01:16:33;;;;;;;0.85;0.85;;;;;;;23.74;51.22;101230.41;5225202;28;20488;-81
2022/07/21 01:19:06;;;;;;;0.17;0.17;;;;;;;23.73;51.25;101240.25;5227969;28;20119;-81
2022/07/21 01:21:39;;;;;;;5.70;1.88;;;;;;;23.71;51.38;101249.38;5210633;28;20025;-81
2022/07/21 01:24:10;;;;;;;0.52;0.52;;;;;;;23.68;52.00;101252.25;5204237;28;20032;-82
2022/07/21 01:26:46;;;;;;;0.85;0.85;;;;;;;23.66;52.26;101255.06;5188244;28;20123;-81
2022/07/21 01:29:18;;;;;;;2.17;1.05;;;;;;;23.67;52.02;101254.09;5189838;28;20412;-81
2022/07/21 01:31:49;;;;;;;0.70;0.70;;;;;;;23.66;51.50;101248.88;5212226;28;20060;-81
2022/07/21 01:34:20;;;;;;;0.43;0.43;;;;;;;23.64;52.09;101245.44;5225904;28;20052;-82
2022/07/21 01:36:50;;;;;;;0.93;0.93;;;;;;;23.63;52.11;101243.72;5213278;28;20022;-82
2022/07/21 01:42:13;;;;;;;0.23;0.23;;;;;;;23.61;51.40;101246.53;5236571;28;20288;-82
2022/07/21 01:44:44;;;;;;;3.70;1.00;;;;;;;23.61;51.39;101246.53;5187263;28;20038;-82
2022/07/21 01:47:22;;;;;;;0.32;0.32;;;;;;;23.62;51.03;101245.56;5247600;28;20098;-81
2022/07/21 01:49:56;;;;;;;1.85;1.17;;;;;;;23.59;51.67;101243.09;5207231;28;20099;-81
2022/07/21 01:52:27;;;;;;;1.00;0.85;;;;;;;23.58;52.15;101239.59;5216012;28;20041;-81
2022/07/21 01:54:57;;;;;;;0.55;0.55;;;;;;;23.57;51.30;101245.91;5211663;28;20021;-81
2022/07/21 01:57:28;;;;;;;0.65;0.65;;;;;;;23.58;52.33;101250.28;5211297;28;20033;-83
2022/07/21 01:59:58;;;;;;;0.55;0.55;;;;;;;23.56;52.39;101246.88;5237827;28;20037;-81
2022/07/21 02:02:29;;;;;;;0.20;0.20;;;;;;;23.56;51.77;101244.19;5209237;28;20032;-81
2022/07/21 02:04:59;;;;;;;0.50;0.50;;;;;;;23.58;52.21;101252.09;5176650;28;20046;-79
2022/07/21 02:07:30;;;;;;;0.47;0.47;;;;;;;23.57;52.97;101239.69;5211479;28;20025;-81
2022/07/21 02:10:03;;;;;;;0.80;0.80;;;;;;;23.56;51.97;101236.16;5195921;28;20048;-81
2022/07/21 02:12:34;;;;;;;0.43;0.43;;;;;;;23.53;53.62;101239.03;5209849;28;20093;-82
2022/07/21 02:15:05;;;;;;;0.40;0.40;;;;;;;23.51;53.53;101243.66;5224983;28;20460;-81
2022/07/21 02:17:35;;;;;;;0.55;0.55;;;;;;;23.47;54.47;101242.19;5174260;28;20117;-81
2022/07/21 02:20:06;;;;;;;1.02;0.95;;;;;;;23.50;52.74;101255.38;5217765;28;20655;-80
2022/07/21 02:22:37;;;;;;;0.75;0.60;;;;;;;23.48;53.11;101251.06;5219571;28;20033;-80
2022/07/21 02:25:07;;;;;;;0.43;0.43;;;;;;;23.45;52.87;101252.16;5207984;28;20048;-80
2022/07/21 02:27:40;;;;;;;0.52;0.52;;;;;;;23.43;53.54;101254.06;5215393;28;20055;-81
2022/07/21 02:30:12;;;;;;;2.13;1.92;;;;;;;23.30;58.31;101255.94;5234302;28;20093;-81
2022/07/21 02:32:43;;;;;;;0.70;0.70;;;;;;;23.37;53.82;101243.81;5211866;28;20040;-81
2022/07/21 02:35:14;;;;;;;0.85;0.85;;;;;;;23.37;54.31;101254.53;5187965;28;20102;-81
2022/07/21 02:37:44;;;;;;;0.60;0.60;;;;;;;23.32;54.12;101252.19;5190211;28;20037;-81
2022/07/21 02:40:18;;;;;;;0.93;0.93;;;;;;;23.32;54.32;101256.69;5207299;28;20123;-81
2022/07/21 02:42:48;;;;;;;0.35;0.35;;;;;;;23.32;53.81;101248.66;5229442;28;20037;-82
2022/07/21 02:45:19;;;;;;;1.13;0.43;;;;;;;23.30;57.89;101247.91;5210020;28;20052;-81
2022/07/21 02:48:06;;;;;;;0.45;0.45;;;;;;;23.24;53.24;101234.03;5215794;22;20061;-83
2022/07/21 02:50:43;;;;;;;0.38;0.38;;;;;;;23.24;53.78;101228.66;5206092;28;20038;-84
2022/07/21 02:53:19;;;;;;;1.00;0.90;;;;;;;23.24;53.43;101230.47;5174105;28;20061;-83
2022/07/21 02:55:54;;;;;;;1.55;0.80;;;;;;;23.22;54.77;101235.94;5186760;28;20037;-84
2022/07/21 02:58:27;;;;;;;5.93;1.83;;;;;;;23.19;54.70;101230.81;5181984;28;20033;-81
2022/07/21 03:01:00;;;;;;;0.82;0.82;;;;;;;23.16;53.83;101228.34;5181822;28;20042;-82
2022/07/21 03:03:35;;;;;;;0.85;0.82;;;;;;;23.14;53.61;101222.25;5199912;28;20025;-82
2022/07/21 03:06:06;;;;;;;0.57;0.57;;;;;;;23.11;53.55;101227.81;5202818;28;20103;-84
2022/07/21 03:08:39;;;;;;;0.73;0.73;;;;;;;23.09;53.54;101225.25;5182269;28;20030;-83
2022/07/21 03:11:10;;;;;;;0.60;0.60;;;;;;;23.09;53.83;101227.09;5180777;28;20034;-84
2022/07/21 03:13:40;;;;;;;0.50;0.50;;;;;;;23.06;53.17;101222.78;5214276;28;20111;-83
2022/07/21 03:16:13;;;;;;;0.75;0.73;;;;;;;23.05;53.32;101220.22;5196142;28;20094;-84
2022/07/21 03:18:44;;;;;;;0.75;0.73;;;;;;;23.05;53.04;101223.78;5194932;28;20075;-83
2022/07/21 03:21:17;;;;;;;0.82;0.80;;;;;;;23.04;53.21;101218.50;5177531;28;20072;-83
2022/07/21 03:23:47;;;;;;;;;;;;;;;23.07;54.03;101210.28;5181947;28;20029;-83
2022/07/21 03:26:21;;;;;;;1.58;1.48;;;;;;;23.02;53.31;101212.41;5178423;28;19974;-84
2022/07/21 03:28:51;;;;;;;0.57;0.57;;;;;;;22.99;53.81;101212.66;5197391;28;20037;-83
2022/07/21 03:31:27;;;;;;;0.40;0.40;;;;;;;22.99;53.40;101207.28;5206018;28;20056;-83
2022/07/21 03:33:58;;;;;;;0.82;0.82;;;;;;;22.97;53.51;101207.41;5180848;28;20037;-83
2022/07/21 03:36:34;;;;;;;;;;;;;;;22.97;54.76;101211.91;5186140;28;20105;-83
2022/07/21 03:39:15;;;;;;;0.88;0.88;;;;;;;22.97;53.52;101206.53;5190190;28;20126;-84
2022/07/21 03:41:46;;;;;;;0.57;0.57;;;;;;;22.95;53.42;101212.00;5196691;28;20111;-84
2022/07/21 03:44:17;;;;;;;0.70;0.70;;;;;;;22.94;53.88;101205.78;5173242;28;20022;-83
2022/07/21 03:46:50;;;;;;;;;;;;;;;22.94;54.05;101204.94;5234012;28;20075;-83
2022/07/21 03:49:22;;;;;;;1.70;1.30;;;;;;;22.91;53.63;101210.50;5197691;28;19917;-84
2022/07/21 03:51:53;;;;;;;0.98;0.98;;;;;;;22.95;54.40;101207.50;5202193;28;20096;-84
2022/07/21 03:54:24;;;;;;;0.65;0.50;;;;;;;22.92;55.11;101210.41;5178817;28;20381;-84
2022/07/21 03:56:54;;;;;;;0.50;0.50;;;;;;;22.88;54.38;101206.25;5210448;28;20093;-85
2022/07/21 03:59:25;;;;;;;1.20;1.15;;;;;;;22.86;54.56;101202.81;5188070;28;20037;-83
2022/07/21 04:01:55;;;;;;;5.93;1.08;;;;;;;22.84;53.86;101210.13;5228582;28;20034;-84
2022/07/21 04:04:26;;;;;;;4.28;1.30;;;;;;;22.83;54.43;101219.09;5180652;28;20048;-84
2022/07/21 04:06:59;;;;;;;;;;;;;;;22.83;54.23;101207.53;5184134;28;20333;-84
2022/07/21 04:09:31;;;;;;;0.40;0.40;;;;;;;22.81;55.17;101204.97;5197276;28;19984;-84
2022/07/21 04:12:01;;;;;;;0.60;0.60;;;;;;;22.74;57.04;101209.88;5183493;28;20033;-82
2022/07/21 04:14:32;;;;;;;2.85;0.88;;;;;;;22.79;56.10;101206.88;5196200;28;20739;-83
2022/07/21 04:17:02;;;;;;;2.90;1.05;;;;;;;22.75;55.92;101200.06;5195287;28;20204;-83
2022/07/21 04:19:33;;;;;;;3.85;0.98;;;;;;;22.75;55.77;101194.72;5181126;28;20096;-83
2022/07/21 04:22:04;;;;;;;0.30;0.30;;;;;;;22.76;56.95;101196.44;5194873;28;20037;-83
2022/07/21 04:24:34;;;;;;;1.25;0.98;;;;;;;22.73;57.30;101197.47;5181673;28;20053;-83
2022/07/21 04:27:07;;;;;;;0.85;0.85;;;;;;;22.76;55.97;101197.28;5194222;28;20076;-84
2022/07/21 04:29:41;;;;;;;0.68;0.68;;;;;;;22.73;59.19;101186.78;5156287;28;20052;-83
2022/07/21 04:32:11;;;;;;;1.77;1.02;;;;;;;22.72;56.06;101194.91;5196964;28;20654;-82
2022/07/21 04:34:42;;;;;;;1.33;1.20;;;;;;;22.74;56.36;101187.66;5190378;22;20049;-81
2022/07/21 04:37:16;;;;;;;0.75;0.75;;;;;;;22.64;57.40;101192.81;5226755;28;20097;-79
2022/07/21 04:39:46;;;;;;;1.25;1.08;;;;;;;22.68;56.18;101193.44;5205419;28;20063;-77
2022/07/21 04:42:16;;;;;;;2.03;1.73;;;;;;;22.69;56.84;101195.13;5220584;28;20064;-78
2022/07/21 04:44:47;;;;;;;0.90;0.90;;;;;;;22.63;58.96;101202.63;5197379;28;20061;-79
2022/07/21 04:47:27;;;;;;;0.60;0.60;;;;;;;22.58;57.76;101194.09;5183807;22;20414;-83
2022/07/21 04:49:58;;;;;;;0.80;0.80;;;;;;;22.61;59.92;101199.19;5137344;28;20102;-83
2022/07/21 04:52:28;;;;;;;1.40;1.10;;;;;;;22.62;58.47;101203.59;5168052;28;20120;-84
2022/07/21 04:54:59;;;;;;;1.17;1.08;;;;;;;22.36;62.30;101199.19;5159259;28;20070;-84
2022/07/21 04:57:37;;;;;;;2.75;1.05;;;;;;;22.20;62.94;101196.72;5157750;28;20116;-85
2022/07/21 05:00:13;;;;;;;1.65;1.15;;;;;;;22.29;61.07;101210.31;5149623;28;20086;-84
2022/07/21 05:02:48;;;;;;;0.95;0.90;;;;;;;22.21;63.35;101212.66;5167137;28;20042;-83
2022/07/21 05:05:19;;;;;;;0.85;0.85;;;;;;;22.24;61.14;101216.91;5178336;28;20034;-83
2022/07/21 05:07:49;;;;;;;0.85;0.82;;;;;;;22.08;63.25;101219.81;5132897;28;20099;-83
2022/07/21 05:10:24;;;;;;;1.25;1.15;;;;;;;22.13;61.41;101217.66;5159779;28;20054;-84
2022/07/21 05:12:57;;;;;;;0.60;0.45;;;;;;;22.07;63.51;101220.75;5121631;28;20693;-84
2022/07/21 05:15:31;;;;;;;2.10;1.52;;;;;;;22.17;60.29;101217.34;5174265;28;20049;-84
2022/07/21 05:18:01;;;;;;;23.92;2.58;;;;;;;22.17;60.17;101227.19;5180612;28;20035;-86
2022/07/21 05:20:34;;;;;;;0.95;0.93;;;;;;;22.06;63.35;101227.06;5184957;28;20057;-83
2022/07/21 05:23:08;;;;;;;1.10;0.82;;;;;;;22.07;62.86;101221.59;5145431;28;20034;-84
2022/07/21 05:25:39;;;;;;;0.55;0.55;;;;;;;22.12;61.74;101223.97;5159328;28;20152;-84
2022/07/21 05:28:09;;;;;;;0.77;0.77;;;;;;;22.13;62.46;101225.69;5147631;28;20525;-84
2022/07/21 05:30:43;;;;;;;0.65;0.65;;;;;;;22.06;61.53;101219.03;5146229;28;20040;-84
2022/07/21 05:33:16;;;;;;;0.77;0.77;;;;;;;22.04;62.18;101228.97;5145980;28;20394;-84
2022/07/21 05:35:56;;;;;;;1.25;0.80;;;;;;;21.75;65.00;101227.28;5126300;28;20794;-84
2022/07/21 05:38:27;;;;;;;1.45;1.17;;;;;;;21.89;62.15;101233.56;5148785;28;20042;-85
2022/07/21 05:41:02;;;;;;;0.85;0.85;;;;;;;21.97;61.46;101229.38;5164963;28;20043;-84
2022/07/21 05:43:36;;;;;;;0.85;0.85;;;;;;;22.03;62.85;101228.13;5153555;28;20050;-84
2022/07/21 05:46:06;;;;;;;0.65;0.65;;;;;;;21.94;63.94;101229.59;5161913;28;20045;-84
2022/07/21 05:48:37;;;;;;;5.93;1.38;;;;;;;21.93;63.34;101225.22;5148904;28;20045;-84
2022/07/21 05:51:11;;;;;;;0.80;0.60;;;;;;;22.04;61.86;101234.31;5159717;28;20046;-84
2022/07/21 05:53:41;;;;;;;1.45;1.15;;;;;;;22.10;62.76;101231.25;5138530;28;20050;-83
2022/07/21 05:56:12;;;;;;;0.98;0.88;;;;;;;22.15;61.55;101229.09;5139516;28;20042;-84
2022/07/21 05:58:43;;;;;;;0.47;0.47;;;;;;;22.03;63.16;101233.47;5150130;28;20054;-84
2022/07/21 06:01:26;;;;;;;0.73;0.73;;;;;;;22.18;60.83;101228.91;5141313;28;20389;-84
2022/07/21 06:03:57;;;;;;;0.75;0.75;;;;;;;22.24;60.35;101225.81;5139624;28;20552;-83
2022/07/21 06:06:30;;;;;;;1.13;1.13;;;;;;;22.24;62.90;101225.81;5160765;28;20114;-84
2022/07/21 06:09:01;;;;;;;0.77;0.75;;;;;;;22.17;63.05;101233.38;5150542;28;20022;-84
2022/07/21 06:11:31;;;;;;;0.93;0.75;;;;;;;22.26;60.76;101217.69;5159348;28;20085;-84
2022/07/21 06:14:02;;;;;;;0.57;0.57;;;;;;;22.30;60.70;101212.00;5133960;28;20069;-85
2022/07/21 06:16:36;;;;;;;0.90;0.90;;;;;;;22.24;60.97;101220.47;5141817;28;20141;-85
2022/07/21 06:19:08;;;;;;;2.92;1.13;;;;;;;22.28;61.04;101219.28;5164772;28;20109;-86
2022/07/21 06:21:40;;;;;;;0.77;0.77;;;;;;;22.35;60.72;101213.53;5147954;28;20109;-84
2022/07/21 06:24:11;;;;;;;;;;;;;;;22.35;59.89;101218.88;5147250;28;20031;-84
2022/07/21 06:26:42;;;;;;;0.40;0.40;;;;;;;22.37;59.28;101216.94;5160191;28;20291;-85
2022/07/21 06:29:12;;;;;;;0.60;0.60;;;;;;;22.38;59.39;101218.66;5156050;28;20030;-87
2022/07/21 06:31:43;;;;;;;0.77;0.75;;;;;;;22.40;61.08;101217.59;5146707;28;20038;-83
2022/07/21 06:34:13;;;;;;;0.93;0.93;;;;;;;22.42;59.94;101212.16;5149632;28;20042;-85
2022/07/21 06:36:44;;;;;;;0.95;0.95;;;;;;;22.42;60.85;101209.50;5147378;28;20022;-86
2022/07/21 06:39:15;;;;;;;3.40;1.55;;;;;;;22.41;60.54;101215.81;5163268;28;20535;-84
2022/07/21 06:41:45;;;;;;;0.52;0.52;;;;;;;22.30;62.22;101217.38;5151140;28;20054;-85
2022/07/21 06:44:16;;;;;;;0.77;0.77;;;;;;;22.19;62.94;101217.22;5170045;28;20088;-87
2022/07/21 06:46:47;;;;;;;0.80;0.80;;;;;;;22.23;61.84;101215.25;5178621;28;20061;-85
2022/07/21 06:49:18;;;;;;;0.90;0.90;;;;;;;22.31;62.22;101213.72;5152777;28;20054;-85
2022/07/21 06:51:48;;;;;;;0.68;0.68;;;;;;;22.37;60.84;101219.59;5149320;28;20077;-85
2022/07/21 06:54:22;;;;;;;1.13;1.05;;;;;;;22.26;61.96;101223.03;5135319;28;20108;-84
2022/07/21 06:56:53;;;;;;;0.43;0.43;;;;;;;22.35;60.44;101234.91;5157537;28;20034;-86
2022/07/21 06:59:24;;;;;;;0.55;0.52;;;;;;;22.31;61.52;101244.97;5155507;28;20268;-84
2022/07/21 07:01:55;;;;;;;0.43;0.43;;;;;;;22.32;60.46;101242.19;5168549;28;20683;-86
2022/07/21 07:04:26;;;;;;;0.40;0.40;;;;;;;22.33;61.01;101238.53;5151292;28;20165;-84
2022/07/21 07:06:56;;;;;;;0.60;0.60;;;;;;;22.41;60.13;101238.03;5164583;28;20121;-85
2022/07/21 07:09:27;;;;;;;1.30;1.15;;;;;;;22.31;60.67;101251.16;5151256;28;20045;-84
2022/07/21 07:12:03;;;;;;;0.38;0.38;;;;;;;22.40;59.73;101244.34;5146184;28;20034;-83
2022/07/21 07:14:40;;;;;;;0.57;0.55;;;;;;;22.31;61.44;101234.28;5164806;28;20080;-84
2022/07/21 07:17:16;;;;;;;0.65;0.65;;;;;;;22.25;60.80;101251.59;5158938;28;20033;-85
2022/07/21 07:19:48;;;;;;;0.63;0.50;;;;;;;22.13;61.66;101253.28;5141583;28;20030;-85
2022/07/21 07:22:18;;;;;;;1.15;1.10;;;;;;;22.11;62.05;101251.63;5126708;28;20030;-84
2022/07/21 07:24:49;;;;;;;0.57;0.57;;;;;;;22.31;60.55;101251.16;5110532;28;20423;-87
2022/07/21 07:27:19;;;;;;;0.50;0.50;;;;;;;22.33;60.45;101238.53;5130951;28;20049;-85
2022/07/21 07:29:50;;;;;;;0.30;0.30;;;;;;;22.38;60.23;101240.03;5135490;28;20043;-86
2022/07/21 07:32:22;;;;;;;1.58;1.20;;;;;;;22.36;60.93;101231.25;5170545;28;20086;-84
2022/07/21 07:34:56;;;;;;;0.57;0.57;;;;;;;22.32;61.00;101226.13;5148991;28;20983;-85
2022/07/21 07:37:26;;;;;;;0.60;0.60;;;;;;;22.26;61.48;101239.06;5191272;28;20030;-85
2022/07/21 07:39:57;;;;;;;0.40;0.40;;;;;;;22.21;61.74;101239.38;5152822;28;20048;-84
2022/07/21 07:42:28;;;;;;;0.70;0.70;;;;;;;22.33;60.88;101235.88;5159505;28;20203;-85
2022/07/21 07:44:58;;;;;;;0.60;0.60;;;;;;;22.39;60.86;101237.31;5150178;28;20041;-85
2022/07/21 07:47:29;;;;;;;0.80;0.80;;;;;;;22.31;60.87;101243.13;5154948;28;20037;-86
2022/07/21 07:50:00;;;;;;;0.35;0.35;;;;;;;22.36;60.87;101239.28;5161900;28;20122;-84
2022/07/21 07:52:30;;;;;;;0.32;0.32;;;;;;;22.24;61.42;101252.53;5139138;28;20123;-83
2022/07/21 07:55:04;;;;;;;0.47;0.47;;;;;;;22.38;59.63;101240.91;5143016;28;20038;-86
2022/07/21 07:57:35;;;;;;;0.70;0.70;;;;;;;22.36;59.84;101241.94;5208120;28;20033;-81
2022/07/21 08:00:18;;;;;;;0.85;0.85;;;;;;;22.42;59.30;101238.91;5166154;28;20038;-83
2022/07/21 08:02:49;;;;;;;0.60;0.60;;;;;;;22.37;60.52;101233.84;5150009;28;20528;-84
2022/07/21 08:05:20;;;;;;;1.00;1.00;;;;;;;22.31;60.81;101245.81;5151323;28;20133;-83
2022/07/21 08:07:51;;;;;;;0.43;0.43;;;;;;;22.48;60.81;101246.50;5146254;28;20031;-83
2022/07/21 08:10:24;;;;;;;0.40;0.40;;;;;;;22.41;60.77;101251.41;5124256;28;20058;-82
2022/07/21 08:12:55;;;;;;;1.98;1.38;;;;;;;22.39;60.70;101241.75;5128630;28;20038;-83
2022/07/21 08:15:27;;;;;;;0.95;0.95;;;;;;;22.39;61.00;101233.72;5130066;28;20035;-83
2022/07/21 08:18:02;;;;;;;0.63;0.60;;;;;;;22.46;60.59;101235.91;5136603;28;20031;-83
2022/07/21 08:20:33;;;;;;;1.02;0.93;;;;;;;22.34;60.55;101234.03;5162347;28;20065;-82
2022/07/21 08:23:07;;;;;;;0.85;0.75;;;;;;;22.33;61.01;101241.22;5136263;28;20090;-83
2022/07/21 08:25:38;;;;;;;0.57;0.57;;;;;;;22.40;61.25;101239.00;5146948;28;20045;-84
2022/07/21 08:28:10;;;;;;;0.95;0.95;;;;;;;22.50;60.44;101239.22;5180036;28;20029;-84
2022/07/21 08:30:41;;;;;;;1.02;0.73;;;;;;;22.40;59.81;101233.66;5152781;28;20089;-86
2022/07/21 08:33:11;;;;;;;4.63;1.38;;;;;;;22.47;60.17;101234.97;5169859;28;20026;-84
2022/07/21 08:35:42;;;;;;;0.80;0.80;;;;;;;22.53;60.73;101233.66;5198058;28;20034;-87
2022/07/21 08:38:13;;;;;;;0.85;0.77;;;;;;;22.62;60.46;101237.53;5170284;28;20438;-84
2022/07/21 08:40:47;;;;;;;1.75;1.10;;;;;;;22.62;61.14;101249.06;5156221;28;20072;-85
2022/07/21 08:43:17;;;;;;;1.30;1.20;;;;;;;22.60;60.78;101245.63;5141681;28;20286;-84
2022/07/21 08:45:49;;;;;;;1.02;1.00;;;;;;;22.60;60.44;101248.31;5130375;28;20033;-84
2022/07/21 08:48:24;;;;;;;0.70;0.60;;;;;;;22.70;59.16;101253.00;5130917;28;20050;-84
2022/07/21 08:50:56;;;;;;;0.77;0.77;;;;;;;22.73;58.86;101250.13;5164602;28;20044;-84
2022/07/21 08:53:28;;;;;;;0.77;0.77;;;;;;;22.77;59.05;101252.47;5164719;28;20085;-86
2022/07/21 08:55:59;;;;;;;1.80;1.53;;;;;;;22.69;58.60;101256.63;5133844;28;20042;-85
2022/07/21 08:58:29;;;;;;;1.05;0.95;;;;;;;22.74;59.48;101250.00;5169681;28;20054;-85
2022/07/21 09:01:00;;;;;;;0.50;0.50;;;;;;;22.79;58.86;101258.59;5159705;28;20057;-84
2022/07/21 09:03:32;;;;;;;4.85;1.70;;;;;;;22.78;58.20;101250.66;5131028;28;20034;-84
2022/07/21 09:06:18;;;;;;;1.55;0.60;;;;;;;22.71;57.55;101260.06;5154653;28;20047;-86
2022/07/21 09:08:50;;;;;;;0.50;0.50;;;;;;;22.72;57.61;101259.13;5148391;28;20058;-86
2022/07/21 09:11:23;;;;;;;1.40;1.15;;;;;;;22.78;57.75;101258.69;5172366;28;20096;-85
2022/07/21 09:14:07;;;;;;;0.43;0.43;;;;;;;22.69;57.90;101259.31;5153455;28;20030;-84
2022/07/21 09:16:48;;;;;;;0.95;0.77;;;;;;;22.71;57.70;101252.91;5165005;28;20044;-85
2022/07/21 09:19:25;;;;;;;1.02;0.80;;;;;;;22.82;58.11;101249.47;5139064;28;20038;-85
2022/07/21 09:21:57;;;;;;;0.73;0.73;;;;;;;22.86;57.64;101255.47;5150355;28;20031;-84
2022/07/21 09:24:31;;;;;;;;;;;;;;;22.93;57.78;101257.59;5163486;28;20042;-85
2022/07/21 09:27:25;;;;;;;0.80;0.63;;;;;;;22.91;58.08;101259.53;5159880;28;20406;-86
2022/07/21 09:30:00;;;;;;;0.93;0.93;;;;;;;22.90;58.19;101257.81;5115718;28;20114;-84
2022/07/21 09:32:37;;;;;;;0.70;0.70;;;;;;;23.02;57.61;101260.56;5127489;28;20101;-87
2022/07/21 09:35:13;;;;;;;0.70;0.70;;;;;;;23.00;57.76;101257.16;5135524;28;20046;-85
2022/07/21 09:37:43;;;;;;;0.60;0.60;;;;;;;23.02;57.58;101253.41;5152132;28;20044;-85
2022/07/21 09:40:17;;;;;;;0.82;0.82;;;;;;;22.93;57.63;101246.88;5159225;28;20039;-84
2022/07/21 09:42:50;;;;;;;0.93;0.93;;;;;;;22.83;57.75;101253.00;5152042;28;20027;-85
2022/07/21 09:45:21;;;;;;;0.30;0.30;;;;;;;22.86;57.46;101260.81;5181557;28;20057;-83
2022/07/21 09:47:52;;;;;;;0.63;0.50;;;;;;;22.97;57.42;101266.28;5181227;28;20523;-85
2022/07/21 09:50:22;;;;;;;1.40;1.30;;;;;;;22.92;57.69;101257.69;5145963;28;20055;-85
2022/07/21 09:52:56;;;;;;;;;;;;;;;22.84;57.17;101260.94;5132060;28;20050;-85
2022/07/21 09:55:29;;;;;;;0.55;0.55;;;;;;;22.79;57.11;101261.25;5167108;28;19996;-83
2022/07/21 09:58:00;;;;;;;0.80;0.80;;;;;;;22.73;57.86;101268.84;5168035;28;20027;-85
2022/07/21 10:00:33;;;;;;;2.38;1.30;;;;;;;22.73;57.77;101275.03;5166091;28;20094;-84
2022/07/21 10:03:04;;;;;;;2.30;1.15;;;;;;;22.77;57.96;101278.34;5116671;28;20519;-84
2022/07/21 10:05:35;;;;;;;1.00;1.00;;;;;;;22.79;57.85;101281.78;5142262;28;20099;-83
2022/07/21 10:08:12;;;;;;;0.57;0.52;;;;;;;22.62;58.80;101281.16;5176374;28;20026;-84
2022/07/21 10:10:42;;;;;;;10.27;2.25;;;;;;;22.71;59.06;101287.69;5150483;28;20051;-81
2022/07/21 10:13:14;;;;;;;0.57;0.57;;;;;;;22.47;60.73;101295.56;5150482;28;20037;-82
2022/07/21 10:15:46;;;;;;;0.95;0.95;;;;;;;22.52;60.45;101292.59;5152337;28;20039;-82
2022/07/21 10:18:34;;;;;;;0.30;0.30;;;;;;;22.55;59.69;101301.25;5135040;28;20050;-82
2022/07/21 10:21:18;;;;;;;0.35;0.35;;;;;;;22.54;60.52;101296.03;5127507;28;20647;-83
2022/07/21 10:23:53;;;;;;;0.68;0.63;;;;;;;22.38;62.28;101294.38;5141077;28;20035;-83
2022/07/21 10:26:24;;;;;;;1.42;1.33;;;;;;;22.33;63.00;101304.50;5176796;28;20128;-82
2022/07/21 10:28:54;;;;;;;0.85;0.85;;;;;;;22.32;64.17;101301.00;5156542;28;20130;-83
2022/07/21 10:31:28;;;;;;;0.52;0.52;;;;;;;22.38;62.60;101302.38;5183203;28;20031;-83
2022/07/21 10:34:02;;;;;;;0.93;0.93;;;;;;;22.46;62.39;101301.88;5165141;28;20035;-83
2022/07/21 10:36:33;;;;;;;1.55;1.45;;;;;;;22.45;64.97;101306.38;5158377;28;20035;-82
2022/07/21 10:39:10;;;;;;;0.80;0.75;;;;;;;22.27;65.90;101308.44;5163607;28;20385;-82
2022/07/21 10:41:46;;;;;;;0.77;0.77;;;;;;;22.34;64.62;101314.25;5164103;28;20116;-83
2022/07/21 10:44:31;;;;;;;1.67;1.35;;;;;;;22.18;65.99;101322.44;5159340;28;20038;-83
2022/07/21 10:47:11;;;;;;;1.05;1.05;;;;;;;22.18;67.04;101319.78;5137263;28;20034;-82
2022/07/21 10:50:01;;;;;;;0.77;0.77;;;;;;;21.97;67.12;101317.56;5136447;28;20046;-81
2022/07/21 10:52:38;;;;;;;0.90;0.85;;;;;;;22.02;68.14;101319.91;5149531;28;20439;-83
2022/07/21 10:55:09;;;;;;;1.60;0.95;;;;;;;21.97;67.83;101316.72;5139708;28;20072;-83
2022/07/21 10:57:42;;;;;;;0.60;0.60;;;;;;;21.93;68.61;101321.41;5143049;28;20072;-83
2022/07/21 11:00:29;;;;;;;0.93;0.90;;;;;;;21.74;69.37;101315.53;5144041;28;20755;-83
2022/07/21 11:03:01;;;;;;;0.82;0.82;;;;;;;21.80;68.90;101320.47;5116556;28;20070;-83
2022/07/21 11:05:33;;;;;;;3.00;0.90;;;;;;;21.63;69.95;101319.75;5158943;28;20115;-84
2022/07/21 11:08:14;;;;;;;2.08;1.40;;;;;;;21.45;70.98;101320.88;5128145;28;20050;-82
2022/07/21 11:10:53;;;;;;;0.60;0.60;;;;;;;21.44;71.25;101319.19;5164367;28;20050;-83
2022/07/21 11:13:26;;;;;;;0.40;0.40;;;;;;;21.38;72.03;101323.94;5178496;28;20034;-83
2022/07/21 11:16:00;;;;;;;0.93;0.93;;;;;;;21.49;70.75;101323.28;5136772;28;20515;-83
2022/07/21 11:18:32;;;;;;;0.93;0.85;;;;;;;21.53;71.21;101319.47;5141173;28;20047;-83
2022/07/21 11:21:16;;;;;;;0.77;0.77;;;;;;;21.45;71.75;101315.56;5126500;28;20117;-83
2022/07/21 11:23:51;;;;;;;0.90;0.90;;;;;;;21.57;68.88;101324.63;5144630;28;20058;-83
2022/07/21 11:26:25;;;;;;;1.50;1.40;;;;;;;21.27;72.86;101326.47;5124683;28;20038;-82
2022/07/21 11:29:06;;;;;;;1.13;1.02;;;;;;;21.29;72.65;101326.34;5128342;28;20022;-83
2022/07/21 11:31:47;;;;;;;0.52;0.52;;;;;;;21.33;72.48;101330.53;5132410;28;20073;-83
2022/07/21 11:34:18;;;;;;;0.75;0.55;;;;;;;21.38;71.36;101321.28;5143450;28;20042;-82
2022/07/21 11:37:01;;;;;;;0.60;0.60;;;;;;;21.47;70.58;101322.53;5163450;28;20089;-82
2022/07/21 11:39:32;;;;;;;1.52;1.23;;;;;;;21.40;71.92;101315.88;5141137;28;20054;-83
2022/07/21 11:42:12;;;;;;;0.30;0.30;;;;;;;21.31;73.13;101321.78;5158682;28;20586;-83
2022/07/21 11:44:44;;;;;;;0.50;0.50;;;;;;;21.28;73.50;101325.47;5149104;28;20043;-83
2022/07/21 11:47:15;;;;;;;2.20;1.13;;;;;;;21.33;72.88;101323.41;5139709;28;20053;-80
2022/07/21 11:49:55;;;;;;;1.50;1.30;;;;;;;21.22;72.88;101325.88;5162020;28;20801;-82
2022/07/21 11:52:28;;;;;;;0.32;0.32;;;;;;;21.19;71.74;101320.75;5167182;28;20030;-83
2022/07/21 11:55:02;;;;;;;0.75;0.75;;;;;;;21.30;70.25;101312.91;5139133;28;20086;-84